Ashwood, Oregon
Current Conditions -  °F | °C
As of 12:35 PM on Saturday 25 Oct 2014 (Local Time) from KS39 Reporting Station
Few Clouds Few Clouds  
Wind Chill: 64°   Ceiling: Unl
Heat Index: 64°   Visibility: 10mi
Dew Point: 36°   Wind: 24mph
Humidity: 34%   Direction: 180°S
Pressure: 29.56"   Gusts: 43mph
Location:  44.73°N, 120.76°W
Report Text: KS39 251935Z AUTO 18021G37KT 10SM FEW075 18/02 A2956 RMK AO2
Loading
Personal Weather Stations






























Interactive Weather Map New forecast layout! Learn more

10-Day Weather Forecast

Advertisements
Track Severe Weather on mobile